KBKE

Baker City Municipal Airport

Baker City, Oregon, USA
KBKE 211732Z 2118/2218 31010KT P6SM VCTS BKN070CB FM220300 VRB05KT P6SM SCT120
Issued Valid From Valid To
Jun-21 @ 17:32 UTC
(36 minutes ago)
Jun-21 @ 18:00 UTC
(8 minutes ago)
Jun-22 @ 18:00 UTC
(in 24 hours)
Jun-21 @ 18:00 to Jun-22 @ 03:00
KBKE 211732Z 2118/2218 31010KT P6SM VCTS BKN070CB
Wind Visibility Clouds Conditions
310° at 10 knots Greater than 6 miles
  • Broken at 7,000' AGL
  • Area Thunderstorm
From Jun-22 @ 03:00 to Jun-22 @ 18:00
FM220300 VRB05KT P6SM SCT120
Wind Visibility Clouds
Variable at 5 knots Greater than 6 miles
  • Scattered at 12,000' AGL
KBKE 211732Z 2118/2218 31010KT P6SM VCTS BKN070CB FM220300 VRB05KT P6SM SCT120
Issued Jun-21 @ 17:32 UTC
(36 minutes ago)
Valid From Jun-21 @ 18:00 UTC
(8 minutes ago)
Valid To Jun-22 @ 18:00 UTC
(in 24 hours)
Jun-21 @ 18:00 - Jun-22 @ 03:00
Wind Visibility
310° at 10 knots Greater than 6 miles
Clouds
  • Broken at 7,000' AGL
Conditions
  • Area Thunderstorm
From Jun-22 @ 03:00 - Jun-22 @ 18:00
Wind Visibility
Variable at 5 knots Greater than 6 miles
Clouds
  • Scattered at 12,000' AGL